Time;durP1;ratioP1;P1;durP2;ratioP2;P2;SDS_P1;SDS_P2;PMS_P1;PMS_P2;Temp;Humidity;BMP_temperature;BMP_pressure;BME280_temperature;BME280_humidity;BME280_pressure;Samples;Min_cycle;Max_cycle;Signal;HPM_P1;HPM_P2
2021/12/11 00:01:20;;;;;;;2.35;1.38;;;3.00;99.90;;;;;;5045352;28;20025;-82
2021/12/11 00:03:56;;;;;;;2.53;1.30;;;3.10;99.90;;;;;;5046880;28;20024;-82
2021/12/11 00:06:26;;;;;;;3.47;1.20;;;3.00;99.90;;;;;;5052349;28;20034;-82
2021/12/11 00:09:11;;;;;;;2.53;0.95;;;3.10;99.90;;;;;;5045986;28;20022;-82
2021/12/11 00:11:42;;;;;;;2.40;0.68;;;3.00;99.90;;;;;;5046223;28;20033;-82
2021/12/11 00:14:12;;;;;;;4.72;0.88;;;3.10;99.90;;;;;;5028391;28;20017;-82
2021/12/11 00:16:39;;;;;;;4.03;0.85;;;3.10;99.90;;;;;;5011077;28;20080;-82
2021/12/11 00:19:20;;;;;;;1.25;0.57;;;3.10;99.90;;;;;;5025471;28;20014;-81
2021/12/11 00:21:46;;;;;;;1.10;0.63;;;3.10;99.90;;;;;;5019671;28;20080;-82
2021/12/11 00:24:19;;;;;;;3.33;0.75;;;3.10;99.90;;;;;;5012014;28;20057;-82
2021/12/11 00:26:55;;;;;;;3.28;0.90;;;3.10;99.90;;;;;;5008238;28;20041;-82
2021/12/11 00:29:27;;;;;;;2.03;0.80;;;3.10;99.90;;;;;;5027181;28;20116;-81
2021/12/11 00:32:04;;;;;;;2.47;1.00;;;3.10;99.90;;;;;;5029287;28;20026;-81
2021/12/11 00:34:31;;;;;;;2.88;0.73;;;3.10;99.90;;;;;;5056242;28;20093;-82
2021/12/11 00:37:00;;;;;;;1.40;0.60;;;3.10;99.90;;;;;;5025266;28;20017;-81
2021/12/11 00:39:27;;;;;;;2.10;0.75;;;3.10;99.90;;;;;;5039365;28;20112;-82
2021/12/11 00:41:55;;;;;;;1.73;0.70;;;3.00;99.90;;;;;;5040153;28;20037;-82
2021/12/11 00:44:36;;;;;;;3.42;0.75;;;3.00;99.90;;;;;;5040970;28;20075;-82
2021/12/11 00:47:09;;;;;;;1.77;0.93;;;3.00;99.90;;;;;;5004283;28;20057;-81
2021/12/11 00:49:53;;;;;;;2.83;0.80;;;3.00;99.90;;;;;;4988163;28;20030;-82
2021/12/11 00:52:46;;;;;;;2.50;0.70;;;3.00;99.90;;;;;;4997131;28;20057;-82
2021/12/11 00:55:22;;;;;;;;;;;3.10;99.90;;;;;;5019609;28;20409;-82
2021/12/11 00:58:00;;;;;;;2.63;0.95;;;3.10;99.90;;;;;;5027159;28;19955;-81
2021/12/11 01:00:26;;;;;;;1.50;0.55;;;3.10;99.90;;;;;;5027742;28;20029;-82
2021/12/11 01:02:56;;;;;;;0.50;0.50;;;3.10;99.90;;;;;;5047481;28;20520;-83
2021/12/11 01:05:23;;;;;;;0.70;0.45;;;3.10;99.90;;;;;;5044687;28;20104;-83
2021/12/11 01:07:49;;;;;;;2.88;0.50;;;3.10;99.90;;;;;;5055144;22;20171;-81
2021/12/11 01:10:26;;;;;;;1.15;0.50;;;3.10;99.90;;;;;;5026932;28;20405;-81
2021/12/11 01:13:00;;;;;;;2.85;0.70;;;3.10;99.90;;;;;;5028086;28;20484;-81
2021/12/11 01:15:39;;;;;;;0.75;0.60;;;3.10;99.90;;;;;;5028284;28;20045;-80
2021/12/11 01:21:04;;;;;;;1.00;0.47;;;3.10;99.90;;;;;;5028633;28;20022;-80
2021/12/11 01:26:08;;;;;;;1.92;0.65;;;3.20;99.90;;;;;;5028717;28;20410;-81
2021/12/11 01:28:35;;;;;;;1.73;0.50;;;3.20;99.90;;;;;;5028809;28;20026;-81
2021/12/11 01:31:03;;;;;;;0.75;0.40;;;3.20;99.90;;;;;;5028531;28;20065;-81
2021/12/11 01:33:30;;;;;;;0.57;0.40;;;3.20;99.90;;;;;;5019312;28;20037;-80
2021/12/11 01:35:56;;;;;;;0.30;0.30;;;3.20;99.90;;;;;;5038658;28;20041;-80
2021/12/11 01:38:27;;;;;;;0.75;0.47;;;3.20;99.90;;;;;;5037715;28;20033;-80
2021/12/11 01:40:57;;;;;;;0.70;0.57;;;3.20;99.90;;;;;;5028859;28;20034;-80
2021/12/11 01:43:26;;;;;;;1.52;0.60;;;3.20;99.90;;;;;;5028998;28;20037;-81
2021/12/11 01:45:54;;;;;;;1.13;0.50;;;3.20;99.90;;;;;;5029853;28;20025;-81
2021/12/11 01:48:32;;;;;;;2.97;0.60;;;3.10;99.90;;;;;;5011493;28;20030;-80
2021/12/11 01:51:08;;;;;;;1.90;0.73;;;3.20;99.90;;;;;;4995738;28;20041;-80
2021/12/11 01:53:46;;;;;;;0.85;0.45;;;3.10;99.90;;;;;;5026834;28;20344;-81
2021/12/11 01:56:16;;;;;;;1.02;0.30;;;3.20;99.90;;;;;;5016294;28;20037;-80
2021/12/11 01:58:58;;;;;;;1.55;0.30;;;3.10;99.90;;;;;;5034179;28;20018;-80
2021/12/11 02:01:30;;;;;;;1.15;0.52;;;3.20;99.90;;;;;;5030582;28;20100;-80
2021/12/11 02:03:57;;;;;;;3.28;0.70;;;3.20;99.90;;;;;;5030165;28;20030;-81
2021/12/11 02:06:28;;;;;;;1.85;0.50;;;3.20;99.90;;;;;;5008477;28;20100;-80
2021/12/11 02:08:54;;;;;;;2.70;0.40;;;3.20;99.90;;;;;;4995381;28;20019;-80
2021/12/11 02:11:24;;;;;;;2.25;0.60;;;3.10;99.90;;;;;;5009908;28;20455;-80
2021/12/11 02:13:56;;;;;;;1.02;0.30;;;3.20;99.90;;;;;;5009464;28;20363;-81
2021/12/11 02:16:24;;;;;;;1.25;0.60;;;3.10;99.90;;;;;;5008828;28;20025;-80
2021/12/11 02:18:55;;;;;;;0.57;0.32;;;3.10;99.90;;;;;;4990408;28;20088;-81
2021/12/11 02:21:27;;;;;;;2.53;0.65;;;3.20;99.90;;;;;;5008012;28;20026;-80
2021/12/11 02:24:03;;;;;;;1.70;0.90;;;3.20;99.90;;;;;;5027976;28;20106;-80
2021/12/11 02:26:32;;;;;;;1.92;0.60;;;3.20;99.90;;;;;;5022977;28;20030;-80
2021/12/11 02:29:28;;;;;;;0.43;0.43;;;3.10;99.90;;;;;;5022077;28;20046;-80
2021/12/11 02:32:00;;;;;;;2.90;0.50;;;3.10;99.90;;;;;;5020601;28;20475;-80
2021/12/11 02:34:29;;;;;;;;;;;3.10;99.90;;;;;;5028828;28;20022;-80
2021/12/11 02:37:19;;;;;;;1.25;0.50;;;3.10;99.90;;;;;;5023196;28;19933;-80
2021/12/11 02:39:53;;;;;;;0.43;0.40;;;3.00;99.90;;;;;;5010058;28;20452;-81
2021/12/11 02:42:25;;;;;;;0.47;0.40;;;3.00;99.90;;;;;;5005131;28;20057;-80
2021/12/11 02:45:13;;;;;;;1.60;0.50;;;3.00;99.90;;;;;;5006242;28;20030;-81
2021/12/11 02:48:07;;;;;;;3.25;0.52;;;3.10;99.90;;;;;;4989545;28;20045;-81
2021/12/11 02:50:45;;;;;;;2.47;0.60;;;3.10;99.90;;;;;;4983895;28;20084;-80
2021/12/11 02:53:17;;;;;;;2.75;0.90;;;3.10;99.90;;;;;;5000292;28;20032;-80
2021/12/11 02:55:51;;;;;;;2.73;0.70;;;3.10;99.90;;;;;;4997235;28;20022;-82
2021/12/11 02:58:21;;;;;;;2.03;0.52;;;3.10;99.90;;;;;;4993306;28;20014;-80
2021/12/11 03:00:59;;;;;;;0.57;0.57;;;3.10;99.90;;;;;;5015132;28;20010;-80
2021/12/11 03:03:35;;;;;;;2.20;0.63;;;3.20;99.90;;;;;;5020356;28;20113;-83
2021/12/11 03:06:11;;;;;;;2.15;0.47;;;3.20;99.90;;;;;;5028555;28;20026;-80
2021/12/11 03:08:37;;;;;;;2.50;0.70;;;3.20;99.90;;;;;;5032536;28;20033;-81
2021/12/11 03:11:10;;;;;;;1.65;0.52;;;3.20;99.90;;;;;;5036064;28;20026;-79
2021/12/11 03:13:38;;;;;;;1.02;0.50;;;3.20;99.90;;;;;;5030130;28;20038;-81
2021/12/11 03:16:08;;;;;;;1.02;0.52;;;3.20;99.90;;;;;;5029050;28;20021;-80
2021/12/11 03:18:34;;;;;;;2.38;0.88;;;3.10;99.90;;;;;;5026776;28;20061;-81
2021/12/11 03:21:01;;;;;;;1.30;0.68;;;3.10;99.90;;;;;;5028828;28;20065;-81
2021/12/11 03:23:27;;;;;;;0.55;0.40;;;3.10;99.90;;;;;;5010375;28;20037;-81
2021/12/11 03:25:53;;;;;;;1.55;0.82;;;3.10;99.90;;;;;;5026705;28;20026;-81
2021/12/11 03:28:20;;;;;;;3.10;0.63;;;3.10;99.90;;;;;;5026134;28;20022;-81
2021/12/11 03:30:56;;;;;;;2.97;0.80;;;3.20;99.90;;;;;;5010328;28;20034;-80
2021/12/11 03:33:26;;;;;;;1.17;0.70;;;3.20;99.90;;;;;;5026896;28;20104;-80
2021/12/11 03:35:55;;;;;;;1.73;0.80;;;3.20;99.90;;;;;;5014230;28;20042;-81
2021/12/11 03:38:22;;;;;;;2.47;0.73;;;3.20;99.90;;;;;;4989166;28;20027;-80
2021/12/11 03:40:48;;;;;;;1.23;0.63;;;3.20;99.90;;;;;;4989656;28;20291;-81
2021/12/11 03:43:16;;;;;;;1.95;0.60;;;3.20;99.90;;;;;;4990795;28;20080;-80
2021/12/11 03:45:45;;;;;;;1.30;0.50;;;3.20;99.90;;;;;;5006216;28;20075;-81
2021/12/11 03:48:18;;;;;;;0.77;0.55;;;3.20;99.90;;;;;;5006763;28;20022;-81
2021/12/11 03:50:44;;;;;;;1.70;0.70;;;3.20;99.90;;;;;;5008144;28;20119;-81
2021/12/11 03:53:11;;;;;;;3.17;0.70;;;3.20;99.90;;;;;;5025910;28;20014;-80
2021/12/11 03:55:52;;;;;;;0.70;0.50;;;3.20;99.90;;;;;;5026162;28;20018;-81
2021/12/11 03:58:19;;;;;;;3.92;0.90;;;3.20;99.90;;;;;;5008016;28;20034;-81
2021/12/11 04:00:59;;;;;;;1.15;0.60;;;3.20;99.90;;;;;;5008076;28;20072;-80
2021/12/11 04:03:29;;;;;;;0.95;0.80;;;3.20;99.90;;;;;;5008907;28;20052;-80
2021/12/11 04:05:57;;;;;;;1.73;0.50;;;3.20;99.90;;;;;;5025207;28;20111;-79
2021/12/11 04:08:27;;;;;;;1.65;0.70;;;3.20;99.90;;;;;;5008185;28;20058;-79
2021/12/11 04:10:56;;;;;;;1.85;0.50;;;3.20;99.90;;;;;;4987921;28;20479;-80
2021/12/11 04:13:23;;;;;;;2.22;0.80;;;3.10;99.90;;;;;;5005070;28;20089;-79
2021/12/11 04:15:51;;;;;;;3.22;1.00;;;3.10;99.90;;;;;;5005217;28;20038;-80
2021/12/11 04:18:17;;;;;;;1.05;0.82;;;3.00;99.90;;;;;;5010952;28;20026;-80
2021/12/11 04:20:46;;;;;;;1.60;1.02;;;3.00;99.90;;;;;;5017305;28;20077;-79
2021/12/11 04:23:13;;;;;;;4.40;0.80;;;3.00;99.90;;;;;;5033261;28;20006;-79
2021/12/11 04:25:46;;;;;;;0.82;0.70;;;2.90;99.90;;;;;;5015686;28;20029;-80
2021/12/11 04:28:13;;;;;;;3.15;0.85;;;2.90;99.90;;;;;;5011326;28;20026;-80
2021/12/11 04:30:42;;;;;;;0.70;0.63;;;2.90;99.90;;;;;;5028012;28;20053;-80
2021/12/11 04:33:08;;;;;;;4.13;1.02;;;2.90;99.90;;;;;;5028001;28;20022;-80
2021/12/11 04:35:34;;;;;;;3.70;1.05;;;2.80;99.90;;;;;;5026936;28;20026;-80
2021/12/11 04:38:04;;;;;;;0.88;0.80;;;2.70;99.90;;;;;;5026660;28;20033;-80
2021/12/11 04:40:36;;;;;;;2.55;0.80;;;2.70;99.90;;;;;;5027610;28;20034;-80
2021/12/11 04:43:07;;;;;;;4.53;0.98;;;2.60;99.90;;;;;;5026490;28;20080;-80
2021/12/11 04:45:45;;;;;;;1.42;0.82;;;2.60;99.90;;;;;;5026159;28;20034;-81
2021/12/11 04:48:48;;;;;;;1.52;0.93;;;2.60;99.90;;;;;;5025920;28;20025;-80
2021/12/11 04:51:26;;;;;;;2.00;1.15;;;2.60;99.90;;;;;;5027831;28;20056;-80
2021/12/11 04:57:51;;;;;;;2.85;0.90;;;2.50;99.90;;;;;;4975338;28;20047;-80
2021/12/11 05:05:31;;;;;;;6.60;1.10;;;2.50;99.90;;;;;;5010951;28;20018;-81
2021/12/11 05:10:55;;;;;;;1.77;1.05;;;2.40;99.90;;;;;;5024862;28;20037;-81
2021/12/11 05:13:23;;;;;;;2.55;1.00;;;2.40;99.90;;;;;;5014889;28;20112;-82
2021/12/11 05:15:51;;;;;;;1.70;0.98;;;2.40;99.90;;;;;;5029854;28;20017;-79
2021/12/11 05:18:19;;;;;;;1.33;1.23;;;2.40;99.90;;;;;;5011823;28;20129;-80
2021/12/11 05:20:47;;;;;;;2.85;0.98;;;2.40;99.90;;;;;;5030258;28;20026;-79
2021/12/11 05:23:16;;;;;;;1.85;1.05;;;2.40;99.90;;;;;;5028778;28;20018;-81
2021/12/11 05:25:42;;;;;;;1.50;0.73;;;2.40;99.90;;;;;;5028121;28;20022;-80
2021/12/11 05:28:09;;;;;;;1.60;0.80;;;2.40;99.90;;;;;;5028071;28;20488;-80
2021/12/11 05:30:39;;;;;;;1.98;0.77;;;2.40;99.90;;;;;;5010798;28;20026;-80
2021/12/11 05:33:05;;;;;;;1.23;0.70;;;2.40;99.90;;;;;;5029265;28;20437;-78
2021/12/11 05:35:34;;;;;;;1.33;0.80;;;2.40;99.90;;;;;;5028299;28;20033;-79
2021/12/11 05:38:01;;;;;;;2.20;0.75;;;2.30;99.90;;;;;;5028560;28;20030;-80
2021/12/11 05:40:29;;;;;;;1.65;0.90;;;2.30;99.90;;;;;;4996289;28;20157;-80
2021/12/11 05:42:55;;;;;;;1.75;0.75;;;2.30;99.90;;;;;;5008812;28;20074;-80
2021/12/11 05:45:21;;;;;;;2.83;0.95;;;2.30;99.90;;;;;;5008989;28;20026;-80
2021/12/11 05:47:48;;;;;;;2.92;1.27;;;2.30;99.90;;;;;;5010926;28;20014;-80
2021/12/11 05:50:20;;;;;;;2.47;1.40;;;2.30;99.90;;;;;;5009286;28;20026;-79
2021/12/11 05:52:48;;;;;;;1.40;0.93;;;2.20;99.90;;;;;;5019926;28;20451;-80
2021/12/11 05:55:17;;;;;;;1.88;0.90;;;2.20;99.90;;;;;;5028528;28;20018;-79
2021/12/11 05:57:50;;;;;;;2.40;0.70;;;2.20;99.90;;;;;;5020403;28;20093;-79
2021/12/11 06:00:17;;;;;;;3.92;0.85;;;2.20;99.90;;;;;;5019822;28;20037;-80
2021/12/11 06:02:44;;;;;;;3.30;0.93;;;2.20;99.90;;;;;;5024154;28;20030;-80
2021/12/11 06:05:10;;;;;;;1.58;1.05;;;2.20;99.90;;;;;;5031571;28;20045;-79
2021/12/11 06:07:37;;;;;;;2.85;1.42;;;2.20;99.90;;;;;;5013726;28;20046;-80
2021/12/11 06:10:11;;;;;;;1.30;0.93;;;2.20;99.90;;;;;;5029886;28;20022;-80
2021/12/11 06:12:36;;;;;;;5.22;1.60;;;2.20;99.90;;;;;;5028752;28;20018;-80
2021/12/11 06:15:04;;;;;;;1.45;1.02;;;2.20;99.90;;;;;;5032882;28;20057;-79
2021/12/11 06:17:32;;;;;;;4.22;1.27;;;2.20;99.90;;;;;;5015399;28;20153;-79
2021/12/11 06:19:59;;;;;;;1.67;1.30;;;2.20;99.90;;;;;;5031825;28;20053;-78
2021/12/11 06:22:29;;;;;;;1.33;1.10;;;2.20;99.90;;;;;;5032158;28;20026;-79
2021/12/11 06:24:57;;;;;;;1.65;1.17;;;2.20;99.90;;;;;;5013556;28;20045;-78
2021/12/11 06:27:24;;;;;;;2.88;1.10;;;2.20;99.90;;;;;;5014878;28;20033;-79
2021/12/11 06:29:51;;;;;;;4.07;1.27;;;2.30;99.90;;;;;;5036857;28;20022;-80
2021/12/11 06:32:17;;;;;;;2.92;1.38;;;2.30;99.90;;;;;;5036620;28;20010;-80
2021/12/11 06:34:43;;;;;;;1.10;1.00;;;2.40;99.90;;;;;;5037395;28;20044;-80
2021/12/11 06:37:10;;;;;;;2.60;1.08;;;2.40;99.90;;;;;;5033255;28;20029;-80
2021/12/11 06:39:36;;;;;;;1.85;0.88;;;2.40;99.90;;;;;;5017262;28;20034;-79
2021/12/11 06:42:06;;;;;;;1.10;1.00;;;2.40;99.90;;;;;;5034218;28;20041;-80
2021/12/11 06:44:33;;;;;;;1.27;0.93;;;2.40;99.90;;;;;;5008671;28;20033;-80
2021/12/11 06:47:02;;;;;;;1.30;1.10;;;2.50;99.90;;;;;;5026475;28;20041;-81
2021/12/11 06:49:31;;;;;;;2.72;1.08;;;2.50;99.90;;;;;;5023980;28;20022;-79
2021/12/11 06:51:57;;;;;;;1.15;1.05;;;2.60;99.90;;;;;;5026977;28;20026;-79
2021/12/11 06:54:25;;;;;;;2.38;0.82;;;2.60;99.90;;;;;;5009994;28;20022;-79
2021/12/11 06:56:51;;;;;;;2.03;1.00;;;2.60;99.90;;;;;;5025937;28;20358;-80
2021/12/11 06:59:17;;;;;;;2.67;1.15;;;2.60;99.90;;;;;;5008929;28;20040;-80
2021/12/11 07:01:43;;;;;;;1.30;0.95;;;2.70;99.90;;;;;;4992167;28;20030;-80
2021/12/11 07:04:11;;;;;;;4.20;1.10;;;2.70;99.90;;;;;;4990089;28;20046;-79
2021/12/11 07:06:40;;;;;;;4.00;1.30;;;2.70;99.90;;;;;;4988958;28;20038;-80
2021/12/11 07:09:08;;;;;;;2.40;0.90;;;2.70;99.90;;;;;;5045912;23;20117;-81
2021/12/11 07:11:35;;;;;;;2.45;0.75;;;2.80;99.90;;;;;;5025999;28;20040;-81
2021/12/11 07:14:01;;;;;;;6.00;1.33;;;2.80;99.90;;;;;;5020421;28;20018;-80
2021/12/11 07:16:27;;;;;;;2.80;1.25;;;2.80;99.90;;;;;;4988249;28;20450;-80
2021/12/11 07:18:53;;;;;;;6.90;1.75;;;2.90;99.90;;;;;;5007097;28;20018;-80
2021/12/11 07:21:19;;;;;;;9.15;2.45;;;2.90;99.90;;;;;;5004730;28;20110;-81
2021/12/11 07:23:48;;;;;;;8.00;1.17;;;2.90;99.90;;;;;;5024926;28;20041;-80
2021/12/11 07:26:22;;;;;;;3.97;1.30;;;3.00;99.90;;;;;;5026335;28;20029;-83
2021/12/11 07:28:52;;;;;;;7.65;1.42;;;3.00;99.90;;;;;;5026596;28;20017;-80
2021/12/11 07:31:19;;;;;;;1.45;1.05;;;3.00;99.90;;;;;;5025234;28;20332;-83
2021/12/11 07:33:46;;;;;;;12.13;1.70;;;3.00;99.90;;;;;;5010060;28;20094;-81
2021/12/11 07:36:12;;;;;;;5.70;1.55;;;3.00;99.90;;;;;;5008384;28;20042;-81
2021/12/11 07:38:38;;;;;;;13.55;1.92;;;3.10;99.90;;;;;;5025939;28;20053;-81
2021/12/11 07:41:08;;;;;;;7.00;1.60;;;3.10;99.90;;;;;;5025618;28;20064;-81
2021/12/11 07:43:35;;;;;;;3.78;1.30;;;3.10;99.90;;;;;;5009416;28;20111;-82
2021/12/11 07:46:03;;;;;;;5.00;1.35;;;3.10;99.90;;;;;;5020276;28;20042;-82
2021/12/11 07:48:29;;;;;;;8.82;1.52;;;3.20;99.90;;;;;;5006435;28;20053;-82
2021/12/11 07:50:55;;;;;;;6.70;1.33;;;3.20;99.90;;;;;;5007069;28;20431;-80
2021/12/11 07:53:21;;;;;;;10.23;1.63;;;3.20;99.90;;;;;;5027808;28;20021;-82
2021/12/11 07:55:47;;;;;;;5.57;1.58;;;3.20;99.90;;;;;;5026827;28;20036;-80
2021/12/11 07:58:14;;;;;;;1.50;1.00;;;3.20;99.90;;;;;;5026927;28;20021;-81
2021/12/11 08:00:42;;;;;;;1.52;0.90;;;3.20;99.90;;;;;;5025263;28;20089;-81
2021/12/11 08:03:09;;;;;;;0.52;0.30;;;3.20;99.90;;;;;;5021875;28;20018;-82
2021/12/11 08:05:35;;;;;;;1.95;0.60;;;3.00;99.90;;;;;;5006713;28;20057;-81
2021/12/11 08:08:05;;;;;;;1.30;0.40;;;2.70;99.90;;;;;;5007555;28;20133;-83
2021/12/11 08:10:34;;;;;;;3.45;0.50;;;2.50;99.90;;;;;;5007052;28;20033;-82
2021/12/11 08:13:03;;;;;;;1.48;0.43;;;2.40;99.90;;;;;;5007241;28;20081;-81
2021/12/11 08:15:29;;;;;;;0.90;0.70;;;2.30;99.90;;;;;;5007372;28;20029;-83
2021/12/11 08:17:55;;;;;;;1.25;0.68;;;2.20;99.90;;;;;;5009709;28;20038;-82
2021/12/11 08:20:29;;;;;;;0.60;0.60;;;2.20;99.90;;;;;;5029184;28;20077;-84
2021/12/11 08:22:56;;;;;;;0.68;0.63;;;2.10;99.90;;;;;;5013984;28;20081;-83
2021/12/11 08:25:25;;;;;;;1.92;0.93;;;2.20;99.90;;;;;;5034689;28;20021;-85
2021/12/11 08:27:52;;;;;;;2.55;1.55;;;2.10;99.90;;;;;;5028230;28;20029;-84
2021/12/11 08:30:18;;;;;;;4.03;1.52;;;2.20;99.90;;;;;;5028664;28;20026;-84
2021/12/11 08:32:44;;;;;;;5.25;1.60;;;2.20;99.90;;;;;;5030702;28;20022;-84
2021/12/11 08:35:12;;;;;;;3.30;1.83;;;2.20;99.90;;;;;;5028618;28;20062;-85
2021/12/11 08:37:42;;;;;;;2.28;1.30;;;2.30;99.90;;;;;;5011323;28;20105;-84
2021/12/11 08:40:17;;;;;;;2.05;1.45;;;2.30;99.90;;;;;;5028381;28;20026;-81
2021/12/11 08:42:43;;;;;;;3.65;1.40;;;2.40;99.90;;;;;;5007609;28;20018;-82
2021/12/11 08:45:13;;;;;;;3.75;1.50;;;2.40;99.90;;;;;;5008222;28;20479;-81
2021/12/11 08:47:41;;;;;;;2.95;1.83;;;2.50;99.90;;;;;;5009696;28;20072;-82
2021/12/11 08:50:13;;;;;;;1.70;1.50;;;2.50;99.90;;;;;;5008614;28;20037;-84
2021/12/11 08:52:43;;;;;;;3.33;1.70;;;2.50;99.90;;;;;;5026533;28;20014;-82
2021/12/11 08:55:19;;;;;;;1.80;1.70;;;2.50;99.90;;;;;;5025688;28;20367;-83
2021/12/11 08:57:45;;;;;;;2.92;1.60;;;2.60;99.90;;;;;;5026050;28;20077;-81
2021/12/11 09:00:42;;;;;;;2.90;1.75;;;2.50;99.90;;;;;;5026000;28;20030;-81
2021/12/11 09:03:14;;;;;;;2.40;1.80;;;2.50;99.90;;;;;;5024776;28;20076;-82
2021/12/11 09:05:46;;;;;;;;;;;2.50;99.90;;;;;;5025930;28;20022;-82
2021/12/11 09:08:26;;;;;;;1.45;1.35;;;2.60;99.90;;;;;;5025662;28;19961;-82
2021/12/11 09:11:00;;;;;;;1.73;1.58;;;2.60;99.90;;;;;;5008994;28;20041;-80
2021/12/11 09:13:29;;;;;;;2.03;1.80;;;2.60;99.90;;;;;;5026270;28;20057;-80
2021/12/11 09:16:08;;;;;;;3.92;1.90;;;2.60;99.90;;;;;;5025518;28;20034;-81
2021/12/11 09:18:57;;;;;;;3.08;2.05;;;2.70;99.90;;;;;;5027982;28;20021;-81
2021/12/11 09:21:34;;;;;;;9.40;1.98;;;2.70;99.90;;;;;;5011190;28;20090;-81
2021/12/11 09:24:05;;;;;;;3.47;2.00;;;2.70;99.90;;;;;;5023325;28;20083;-79
2021/12/11 09:26:41;;;;;;;6.43;2.33;;;2.80;99.90;;;;;;5024262;28;20153;-80
2021/12/11 09:29:18;;;;;;;4.43;2.53;;;2.70;99.90;;;;;;5005961;28;20027;-82
2021/12/11 09:32:12;;;;;;;12.68;2.45;;;2.80;99.90;;;;;;5007103;28;20106;-82
2021/12/11 09:34:51;;;;;;;4.85;2.00;;;2.70;99.90;;;;;;5005671;28;20022;-80
2021/12/11 09:37:17;;;;;;;5.60;2.42;;;2.70;99.90;;;;;;5009780;28;20030;-80
2021/12/11 09:39:51;;;;;;;4.15;1.98;;;2.70;99.90;;;;;;5008650;28;20026;-81
2021/12/11 09:42:17;;;;;;;4.97;1.77;;;2.70;99.90;;;;;;5008273;28;20081;-81
2021/12/11 09:45:03;;;;;;;1.65;1.55;;;2.60;99.90;;;;;;5009342;28;20010;-81
2021/12/11 09:47:35;;;;;;;2.25;1.70;;;2.70;99.90;;;;;;5002218;28;20065;-81
2021/12/11 09:50:09;;;;;;;2.63;1.88;;;2.70;99.90;;;;;;5001637;28;20034;-80
2021/12/11 09:52:36;;;;;;;4.63;2.13;;;2.70;99.90;;;;;;5005387;28;20079;-81
2021/12/11 09:55:15;;;;;;;2.35;2.05;;;2.70;99.90;;;;;;5022070;28;20038;-81
2021/12/11 09:57:46;;;;;;;2.33;1.88;;;2.80;99.90;;;;;;5011219;28;20030;-81
2021/12/11 10:00:32;;;;;;;3.08;2.35;;;2.80;99.90;;;;;;5009350;28;20530;-80
2021/12/11 10:03:00;;;;;;;6.35;2.65;;;2.80;99.90;;;;;;5010354;28;20019;-81
2021/12/11 10:05:42;;;;;;;6.10;2.60;;;2.80;99.90;;;;;;5010443;28;20431;-81
2021/12/11 10:11:14;;;;;;;5.60;3.10;;;2.90;99.90;;;;;;5026325;28;20060;-81
2021/12/11 10:14:06;;;;;;;9.88;3.67;;;2.90;99.90;;;;;;5010919;28;20018;-81
2021/12/11 10:16:37;;;;;;;3.42;2.30;;;3.00;99.90;;;;;;5028711;28;20383;-81
2021/12/11 10:19:04;;;;;;;6.68;3.22;;;3.00;99.90;;;;;;5011022;28;20029;-82
2021/12/11 10:21:54;;;;;;;3.95;2.33;;;3.00;99.90;;;;;;5027820;28;20029;-81
2021/12/11 10:24:25;;;;;;;3.40;2.38;;;3.00;99.90;;;;;;5002546;28;20038;-81
2021/12/11 10:26:53;;;;;;;3.97;2.75;;;3.00;99.90;;;;;;5027608;28;20014;-81
2021/12/11 10:29:21;;;;;;;3.22;2.58;;;3.00;99.90;;;;;;5026579;28;20472;-81
2021/12/11 10:31:55;;;;;;;2.55;2.35;;;3.10;99.90;;;;;;5027270;28;20280;-81
2021/12/11 10:34:24;;;;;;;3.90;2.63;;;3.10;99.90;;;;;;5026653;28;20029;-81
2021/12/11 10:37:05;;;;;;;4.55;2.67;;;3.10;99.90;;;;;;5027500;28;20045;-82
2021/12/11 10:39:31;;;;;;;4.18;2.80;;;3.10;99.90;;;;;;5027245;28;20105;-80
2021/12/11 10:41:57;;;;;;;3.50;2.50;;;3.10;99.90;;;;;;5026489;28;20477;-81
2021/12/11 10:44:39;;;;;;;2.92;2.30;;;3.20;99.90;;;;;;5028257;28;20055;-82
2021/12/11 10:47:12;;;;;;;5.57;3.33;;;3.20;99.90;;;;;;5027264;28;20017;-81
2021/12/11 10:49:39;;;;;;;4.95;2.45;;;3.20;99.90;;;;;;5027315;28;20088;-81
2021/12/11 10:52:13;;;;;;;3.05;2.17;;;3.20;99.90;;;;;;5028326;28;20028;-81
2021/12/11 10:54:39;;;;;;;3.55;2.28;;;3.20;99.90;;;;;;5027223;28;20063;-81
2021/12/11 10:57:06;;;;;;;10.85;3.83;;;3.10;99.90;;;;;;5009797;28;20027;-80
2021/12/11 10:59:34;;;;;;;3.35;2.65;;;3.00;99.90;;;;;;5007337;28;20022;-81
2021/12/11 11:02:06;;;;;;;3.67;2.38;;;3.00;99.90;;;;;;5007360;28;20085;-81
2021/12/11 11:04:37;;;;;;;3.45;2.58;;;3.00;99.90;;;;;;5007274;28;20031;-81
2021/12/11 11:07:04;;;;;;;4.15;2.38;;;3.00;99.90;;;;;;5006121;28;20080;-81
2021/12/11 11:09:30;;;;;;;3.72;2.50;;;2.90;99.90;;;;;;5025393;28;20124;-81
2021/12/11 11:11:59;;;;;;;3.78;2.03;;;2.90;99.90;;;;;;5026480;28;20049;-81
2021/12/11 11:14:26;;;;;;;2.60;2.40;;;2.90;99.90;;;;;;5009716;28;20026;-80
2021/12/11 11:16:56;;;;;;;2.40;2.20;;;3.00;99.90;;;;;;5026781;28;20049;-80
2021/12/11 11:19:24;;;;;;;5.35;2.20;;;3.00;99.90;;;;;;5026261;28;20030;-80
2021/12/11 11:21:57;;;;;;;1.95;1.85;;;3.00;99.90;;;;;;5020953;28;20029;-80
2021/12/11 11:24:30;;;;;;;2.15;1.95;;;2.90;99.90;;;;;;5024474;28;20030;-80
2021/12/11 11:26:57;;;;;;;7.75;2.35;;;2.90;99.90;;;;;;5026248;28;20026;-80
2021/12/11 11:29:25;;;;;;;3.92;2.45;;;2.90;99.90;;;;;;5026155;28;20042;-81
2021/12/11 11:31:55;;;;;;;5.30;2.13;;;2.90;99.90;;;;;;5008784;28;20025;-81
2021/12/11 11:34:24;;;;;;;4.18;2.30;;;2.80;99.90;;;;;;5008670;28;20049;-81
2021/12/11 11:36:51;;;;;;;6.75;2.72;;;2.90;99.90;;;;;;5023064;28;20032;-81
2021/12/11 11:39:20;;;;;;;2.47;1.92;;;2.90;99.90;;;;;;5005052;28;20097;-81
2021/12/11 11:41:54;;;;;;;2.65;2.05;;;3.00;99.90;;;;;;5008899;28;20042;-81
2021/12/11 11:44:21;;;;;;;2.42;1.67;;;3.00;99.90;;;;;;5007301;28;20031;-81
2021/12/11 11:46:47;;;;;;;2.08;1.85;;;3.00;99.90;;;;;;5007295;28;20034;-80
2021/12/11 11:49:17;;;;;;;2.03;1.90;;;3.00;99.90;;;;;;5008313;28;20034;-80
2021/12/11 11:51:52;;;;;;;2.22;2.08;;;2.90;99.90;;;;;;5007743;28;20020;-80
2021/12/11 11:54:21;;;;;;;2.58;2.13;;;2.90;99.90;;;;;;5005095;28;20344;-80
2021/12/11 11:57:05;;;;;;;4.30;2.15;;;2.90;99.90;;;;;;5025871;28;20009;-80
2021/12/11 11:59:32;;;;;;;2.40;2.20;;;3.00;99.90;;;;;;5026454;28;20030;-80
2021/12/11 12:02:05;;;;;;;1.98;1.80;;;3.10;99.90;;;;;;5030014;28;20022;-80
2021/12/11 12:04:35;;;;;;;4.05;2.50;;;3.20;99.90;;;;;;5015738;28;20030;-80
2021/12/11 12:07:02;;;;;;;2.55;2.25;;;3.20;99.90;;;;;;5035388;28;20009;-81
2021/12/11 12:09:31;;;;;;;4.15;2.35;;;3.30;99.90;;;;;;5015119;28;20114;-80
2021/12/11 12:11:58;;;;;;;2.65;2.22;;;3.30;99.90;;;;;;5016471;28;20102;-81
2021/12/11 12:14:29;;;;;;;2.45;2.25;;;3.30;99.90;;;;;;5011792;28;20088;-81
2021/12/11 12:16:55;;;;;;;4.03;2.90;;;3.20;99.90;;;;;;5006597;28;20061;-80
2021/12/11 12:19:23;;;;;;;2.80;2.50;;;3.10;99.90;;;;;;5007150;28;20026;-80
2021/12/11 12:21:52;;;;;;;4.07;2.78;;;3.10;99.90;;;;;;5008196;28;20033;-80
2021/12/11 12:24:21;;;;;;;3.60;2.63;;;3.10;99.90;;;;;;5009906;28;20022;-80
2021/12/11 12:26:47;;;;;;;3.83;2.80;;;3.10;99.90;;;;;;5010422;28;20018;-80
2021/12/11 12:29:14;;;;;;;3.05;2.75;;;3.10;99.90;;;;;;5005937;28;20029;-81
2021/12/11 12:31:57;;;;;;;2.65;2.40;;;3.20;99.90;;;;;;5005149;28;20164;-80
2021/12/11 12:34:25;;;;;;;2.97;2.67;;;3.20;99.90;;;;;;5008255;28;20069;-82
2021/12/11 12:36:51;;;;;;;2.83;2.60;;;3.10;99.90;;;;;;5008013;28;20373;-82
2021/12/11 12:39:22;;;;;;;2.65;2.33;;;3.10;99.90;;;;;;5006297;28;20049;-81
2021/12/11 12:42:03;;;;;;;2.55;1.77;;;3.10;99.90;;;;;;5005768;28;20027;-81
2021/12/11 12:44:30;;;;;;;2.97;2.67;;;3.20;99.90;;;;;;5005690;28;20502;-82
2021/12/11 12:47:01;;;;;;;3.17;2.25;;;3.20;99.90;;;;;;5006252;28;20034;-82
2021/12/11 12:49:30;;;;;;;3.38;2.17;;;3.20;99.90;;;;;;5005514;28;20033;-82
2021/12/11 12:51:59;;;;;;;2.40;2.00;;;3.20;99.90;;;;;;5014212;28;20044;-82
2021/12/11 12:54:25;;;;;;;2.72;2.13;;;3.30;99.90;;;;;;5030840;28;20056;-81
2021/12/11 12:56:57;;;;;;;2.42;1.80;;;3.30;99.90;;;;;;5031748;28;20426;-81
2021/12/11 12:59:33;;;;;;;2.88;2.03;;;3.30;99.90;;;;;;5030115;28;20026;-81
2021/12/11 13:02:17;;;;;;;2.33;1.85;;;3.30;99.90;;;;;;5029191;28;20022;-82
2021/12/11 13:04:49;;;;;;;2.10;1.85;;;3.30;99.90;;;;;;5028840;28;20018;-81
2021/12/11 13:07:16;;;;;;;3.63;2.00;;;3.30;99.90;;;;;;5028866;28;20018;-80
2021/12/11 13:09:53;;;;;;;2.40;1.98;;;3.30;99.90;;;;;;5003772;28;20340;-81
2021/12/11 13:12:24;;;;;;;2.65;2.13;;;3.20;99.90;;;;;;5005032;28;20387;-81
2021/12/11 13:14:52;;;;;;;2.55;2.03;;;3.20;99.90;;;;;;5007340;28;20019;-82
2021/12/11 13:17:32;;;;;;;2.28;2.08;;;3.30;99.80;;;;;;5007723;28;20030;-82
2021/12/11 13:20:12;;;;;;;14.32;3.72;;;3.40;99.80;;;;;;5022286;28;20029;-82
2021/12/11 13:22:42;;;;;;;8.73;3.08;;;3.40;99.70;;;;;;5007747;28;20033;-81
2021/12/11 13:25:14;;;;;;;8.43;3.85;;;3.40;99.60;;;;;;5026052;28;20034;-80
2021/12/11 13:27:41;;;;;;;;;;;3.40;99.50;;;;;;5038798;28;20022;-79
2021/12/11 13:30:13;;;;;;;10.10;3.33;;;3.40;99.70;;;;;;5006144;28;19919;-80
2021/12/11 13:32:39;;;;;;;8.23;2.97;;;3.30;99.90;;;;;;5012097;28;20022;-80
2021/12/11 13:35:12;;;;;;;6.68;3.28;;;3.30;99.60;;;;;;5006120;28;20049;-80
2021/12/11 13:37:37;;;;;;;5.60;3.55;;;3.20;99.70;;;;;;5023068;28;20097;-79